createdAt,value
2018-08-23T00:01:13.364Z,50.60
2018-08-23T00:03:41.654Z,50.50
2018-08-23T00:06:10.617Z,50.30
2018-08-23T00:08:38.892Z,50.30
2018-08-23T00:11:07.135Z,50.00
2018-08-23T00:13:35.410Z,50.70
2018-08-23T00:16:03.650Z,50.60
2018-08-23T00:18:31.902Z,50.50
2018-08-23T00:21:00.934Z,51.00
2018-08-23T00:23:30.085Z,51.80
2018-08-23T00:25:58.341Z,51.70
2018-08-23T00:28:27.434Z,51.50
2018-08-23T00:30:56.766Z,51.20
2018-08-23T00:33:25.012Z,51.20
2018-08-23T00:35:54.034Z,51.20
2018-08-23T00:38:22.326Z,51.10
2018-08-23T00:40:50.579Z,51.60
2018-08-23T00:43:19.759Z,52.80
2018-08-23T00:45:48.021Z,52.00
2018-08-23T00:48:16.269Z,52.00
2018-08-23T00:50:44.668Z,52.00
2018-08-23T00:53:13.691Z,51.50
2018-08-23T00:55:41.938Z,51.90
2018-08-23T00:58:11.006Z,52.20
2018-08-23T01:00:39.247Z,52.20
2018-08-23T01:03:07.530Z,52.30
2018-08-23T01:05:35.780Z,52.50
2018-08-23T01:08:04.031Z,52.80
2018-08-23T01:10:33.068Z,52.70
2018-08-23T01:13:02.103Z,53.30
2018-08-23T01:15:30.382Z,53.20
2018-08-23T01:17:58.642Z,52.80
2018-08-23T01:20:26.889Z,52.60
2018-08-23T01:22:55.150Z,52.40
2018-08-23T01:25:23.403Z,52.30
2018-08-23T01:27:52.472Z,52.80
2018-08-23T01:30:20.743Z,52.80
2018-08-23T01:32:48.991Z,52.80
2018-08-23T01:35:17.263Z,52.80
2018-08-23T01:37:45.507Z,52.80
2018-08-23T01:40:13.771Z,53.20
2018-08-23T01:42:43.459Z,53.20
2018-08-23T01:45:11.712Z,53.20
2018-08-23T01:47:39.978Z,52.80
2018-08-23T01:50:08.221Z,52.80
2018-08-23T01:52:36.479Z,52.80
2018-08-23T01:55:05.503Z,53.50
2018-08-23T01:57:33.765Z,53.40
2018-08-23T02:00:02.024Z,53.70
2018-08-23T02:02:31.078Z,53.40
2018-08-23T02:04:59.311Z,53.40
2018-08-23T02:07:27.573Z,53.70
2018-08-23T02:09:55.833Z,53.50
2018-08-23T02:12:24.859Z,53.30
2018-08-23T02:14:53.105Z,53.30
2018-08-23T02:17:22.138Z,53.30
2018-08-23T02:19:50.388Z,53.30
2018-08-23T02:22:18.635Z,52.90
2018-08-23T02:24:47.662Z,53.50
2018-08-23T02:27:15.914Z,53.20
2018-08-23T02:29:44.942Z,54.00
2018-08-23T02:32:13.182Z,54.00
2018-08-23T02:34:42.515Z,54.30
2018-08-23T02:37:10.755Z,54.30
2018-08-23T02:39:39.768Z,54.60
2018-08-23T02:42:08.034Z,54.50
2018-08-23T02:44:36.328Z,54.80
2018-08-23T02:47:05.310Z,55.30
2018-08-23T02:49:33.567Z,56.00
2018-08-23T02:52:02.583Z,54.70
2018-08-23T02:54:30.837Z,54.60
2018-08-23T02:56:59.871Z,55.10
2018-08-23T02:59:28.168Z,55.10
2018-08-23T03:01:56.410Z,55.00
2018-08-23T03:04:24.674Z,55.00
2018-08-23T03:06:52.954Z,54.70
2018-08-23T03:09:21.204Z,54.40
2018-08-23T03:11:50.227Z,54.20
2018-08-23T03:14:18.559Z,54.20
2018-08-23T03:16:46.778Z,54.20
2018-08-23T03:19:15.786Z,54.60
2018-08-23T03:21:44.118Z,54.60
2018-08-23T03:24:12.378Z,54.60
2018-08-23T03:26:41.402Z,55.30
2018-08-23T03:29:09.756Z,54.30
2018-08-23T03:31:39.082Z,54.60
2018-08-23T03:34:07.346Z,54.60
2018-08-23T03:36:35.604Z,54.90
2018-08-23T03:39:04.637Z,55.60
2018-08-23T03:41:32.901Z,55.60
2018-08-23T03:44:01.142Z,55.30
2018-08-23T03:46:30.162Z,55.60
2018-08-23T03:48:58.426Z,55.60
2018-08-23T03:51:27.454Z,55.60
2018-08-23T03:53:55.704Z,55.50
2018-08-23T03:56:24.172Z,56.40
2018-08-23T03:58:52.870Z,55.50
2018-08-23T04:01:21.126Z,55.70
2018-08-23T04:03:50.607Z,55.90
2018-08-23T04:06:20.768Z,55.90
2018-08-23T04:08:49.778Z,55.40
2018-08-23T04:11:20.078Z,55.40
2018-08-23T04:13:48.353Z,55.20
2018-08-23T04:16:16.608Z,55.20
2018-08-23T04:18:45.630Z,55.20
2018-08-23T04:21:13.915Z,55.20
2018-08-23T04:23:42.186Z,54.90
2018-08-23T04:26:11.196Z,54.80
2018-08-23T04:28:39.458Z,54.80
2018-08-23T04:31:07.698Z,55.10
2018-08-23T04:33:36.734Z,55.40
2018-08-23T04:36:04.983Z,55.40
2018-08-23T04:38:33.270Z,55.80
2018-08-23T04:41:01.509Z,55.40
2018-08-23T04:43:30.552Z,55.50
2018-08-23T04:45:58.800Z,55.50
2018-08-23T04:48:27.826Z,56.00
2018-08-23T04:50:56.094Z,56.00
2018-08-23T04:53:24.354Z,56.20
2018-08-23T04:55:52.625Z,56.30
2018-08-23T04:58:20.899Z,56.40
2018-08-23T05:00:49.166Z,56.60
2018-08-23T05:03:17.418Z,56.90
2018-08-23T05:05:46.447Z,57.00
2018-08-23T05:08:14.687Z,57.00
2018-08-23T05:10:43.742Z,56.60
2018-08-23T05:13:12.005Z,56.60
2018-08-23T05:15:40.257Z,57.10
2018-08-23T05:18:08.504Z,57.00
2018-08-23T05:20:37.535Z,57.00
2018-08-23T05:23:05.846Z,57.00
2018-08-23T05:25:34.803Z,57.20
2018-08-23T05:28:05.955Z,57.10
2018-08-23T05:30:34.230Z,57.20
2018-08-23T05:33:02.471Z,56.90
2018-08-23T05:35:30.714Z,56.40
2018-08-23T05:37:58.981Z,56.40
2018-08-23T05:40:27.222Z,56.90
2018-08-23T05:42:55.743Z,56.70
2018-08-23T05:45:23.966Z,56.80
2018-08-23T05:47:52.235Z,57.70
2018-08-23T05:50:20.485Z,57.80
2018-08-23T05:52:49.530Z,57.30
2018-08-23T05:55:17.784Z,57.30
2018-08-23T05:57:46.050Z,57.00
2018-08-23T06:00:14.294Z,56.70
2018-08-23T06:02:42.593Z,56.30
2018-08-23T06:05:10.950Z,56.10
2018-08-23T06:07:39.966Z,56.20
2018-08-23T06:10:08.219Z,56.20
2018-08-23T06:12:37.255Z,55.70
2018-08-23T06:15:05.502Z,55.70
2018-08-23T06:17:33.770Z,55.70
2018-08-23T06:20:02.824Z,55.10
2018-08-23T06:22:31.053Z,55.10
2018-08-23T06:25:00.095Z,54.30
2018-08-23T06:27:28.391Z,54.20
2018-08-23T06:29:56.619Z,54.10
2018-08-23T06:32:24.863Z,53.90
2018-08-23T06:34:53.136Z,54.30
2018-08-23T06:37:21.415Z,53.10
2018-08-23T06:39:49.666Z,52.50
2018-08-23T06:42:18.703Z,52.50
2018-08-23T06:44:46.963Z,52.40
2018-08-23T06:47:15.571Z,52.90
2018-08-23T06:49:43.823Z,51.80
2018-08-23T06:52:12.083Z,50.40
2018-08-23T06:54:41.098Z,48.30
2018-08-23T06:57:09.339Z,48.20
2018-08-23T06:59:38.374Z,47.80
2018-08-23T07:02:06.631Z,47.80
2018-08-23T07:04:34.899Z,48.60
2018-08-23T07:07:03.164Z,48.60
2018-08-23T07:09:32.190Z,48.70
2018-08-23T07:12:00.473Z,48.60
2018-08-23T07:14:28.711Z,48.00
2018-08-23T07:16:57.764Z,48.00
2018-08-23T07:19:26.101Z,48.00
2018-08-23T07:21:54.359Z,48.10
2018-08-23T07:24:23.695Z,47.40
2018-08-23T07:26:51.938Z,47.40
2018-08-23T07:29:20.227Z,47.10
2018-08-23T07:31:49.232Z,46.90
2018-08-23T07:34:17.554Z,46.90
2018-08-23T07:36:45.798Z,47.10
2018-08-23T07:39:14.041Z,47.90
2018-08-23T07:41:42.527Z,48.20
2018-08-23T07:44:10.778Z,47.30
2018-08-23T07:46:39.799Z,47.90
2018-08-23T07:49:08.048Z,47.80
2018-08-23T07:51:36.323Z,45.50
2018-08-23T07:54:04.585Z,47.40
2018-08-23T07:56:33.606Z,44.60
2018-08-23T07:59:01.870Z,44.60
2018-08-23T08:01:30.163Z,43.60
2018-08-23T08:03:58.446Z,44.20
2018-08-23T08:06:27.427Z,44.70
2018-08-23T08:08:55.706Z,44.70
2018-08-23T08:11:24.887Z,44.90
2018-08-23T08:13:53.143Z,44.10
2018-08-23T08:16:22.480Z,43.10
2018-08-23T08:18:51.483Z,42.30
2018-08-23T08:21:19.745Z,42.20
2018-08-23T08:23:48.027Z,43.20
2018-08-23T08:26:16.283Z,44.00
2018-08-23T08:28:44.547Z,44.60
2018-08-23T08:31:12.807Z,43.40
2018-08-23T08:33:41.844Z,43.20
2018-08-23T08:36:10.090Z,43.20
2018-08-23T08:38:39.130Z,42.70
2018-08-23T08:41:07.389Z,42.60
2018-08-23T08:43:35.659Z,42.40
2018-08-23T08:46:03.926Z,40.40
2018-08-23T08:48:32.160Z,40.40
2018-08-23T08:51:00.435Z,41.30
2018-08-23T08:53:28.683Z,40.90
2018-08-23T08:55:56.955Z,39.70
2018-08-23T08:58:25.226Z,41.50
2018-08-23T09:00:53.497Z,38.70
2018-08-23T09:03:21.756Z,38.80
2018-08-23T09:05:50.014Z,39.80
2018-08-23T09:08:18.271Z,38.60
2018-08-23T09:10:46.687Z,39.80
2018-08-23T09:13:14.947Z,40.00
2018-08-23T09:15:43.195Z,40.60
2018-08-23T09:18:12.228Z,37.60
2018-08-23T09:20:40.502Z,37.60
2018-08-23T09:23:08.750Z,37.00
2018-08-23T09:25:37.765Z,35.50
2018-08-23T09:28:06.046Z,35.40
2018-08-23T09:30:34.335Z,36.00
2018-08-23T09:33:02.692Z,35.70
2018-08-23T09:35:30.956Z,35.20
2018-08-23T09:38:01.505Z,35.20
2018-08-23T09:40:29.748Z,35.30
2018-08-23T09:42:58.952Z,36.50
2018-08-23T09:45:27.159Z,36.30
2018-08-23T09:47:55.410Z,35.30
2018-08-23T09:50:23.672Z,35.60
2018-08-23T09:52:52.695Z,34.10
2018-08-23T09:55:20.961Z,34.00
2018-08-23T09:57:49.239Z,34.00
2018-08-23T10:00:17.552Z,33.40
2018-08-23T10:03:01.599Z,34.00
2018-08-23T10:05:29.885Z,33.80
2018-08-23T10:07:58.152Z,34.60
2018-08-23T10:10:26.494Z,34.30
2018-08-23T10:13:12.530Z,35.90
2018-08-23T10:15:41.848Z,34.80
2018-08-23T10:18:27.511Z,33.70
2018-08-23T10:20:55.782Z,33.80
2018-08-23T10:23:24.029Z,34.70
2018-08-23T10:25:52.289Z,35.00
2018-08-23T10:28:20.548Z,35.10
2018-08-23T10:30:48.799Z,34.50
2018-08-23T10:33:17.831Z,32.40
2018-08-23T10:35:46.078Z,32.40
2018-08-23T10:38:14.404Z,32.60
2018-08-23T10:40:43.358Z,33.20
2018-08-23T10:43:11.611Z,32.90
2018-08-23T10:45:39.907Z,34.20
2018-08-23T10:48:08.185Z,33.70
2018-08-23T10:50:36.475Z,32.60
2018-08-23T10:53:04.718Z,33.90
2018-08-23T10:55:33.731Z,33.90
2018-08-23T10:58:01.991Z,33.90
2018-08-23T11:00:30.263Z,32.40
2018-08-23T11:02:59.445Z,32.50
2018-08-23T11:05:27.675Z,32.40
2018-08-23T11:07:56.183Z,30.90
2018-08-23T11:10:44.297Z,32.40
2018-08-23T11:13:12.549Z,31.60
2018-08-23T11:15:40.810Z,31.10
2018-08-23T11:21:07.059Z,31.40
2018-08-23T11:23:35.356Z,32.20
2018-08-23T11:26:04.185Z,30.60
2018-08-23T11:28:32.437Z,29.90
2018-08-23T11:31:02.086Z,29.10
2018-08-23T11:33:31.114Z,29.20
2018-08-23T11:35:59.381Z,29.10
2018-08-23T11:38:27.640Z,29.00
2018-08-23T11:40:56.647Z,30.30
2018-08-23T11:43:24.963Z,30.40
2018-08-23T11:45:53.940Z,29.30
2018-08-23T11:48:22.209Z,29.20
2018-08-23T11:50:50.490Z,29.00
2018-08-23T11:53:18.794Z,29.10
2018-08-23T11:55:47.010Z,30.00
2018-08-23T11:58:15.284Z,30.30
2018-08-23T12:00:43.547Z,28.80
2018-08-23T12:03:12.576Z,28.80
2018-08-23T12:05:41.612Z,30.10
2018-08-23T12:08:09.874Z,30.00
2018-08-23T12:10:38.141Z,28.30
2018-08-23T12:13:06.414Z,28.00
2018-08-23T12:15:34.685Z,27.70
2018-08-23T12:18:02.931Z,27.70
2018-08-23T12:20:31.196Z,27.10
2018-08-23T12:22:59.533Z,28.50
2018-08-23T12:25:27.819Z,27.40
2018-08-23T12:27:56.055Z,26.80
2018-08-23T12:30:24.309Z,28.00
2018-08-23T12:32:52.559Z,27.70
2018-08-23T12:35:21.590Z,28.00
2018-08-23T12:38:07.715Z,27.90
2018-08-23T12:40:42.424Z,28.00
2018-08-23T12:43:10.658Z,28.00
2018-08-23T12:45:39.259Z,28.80
2018-08-23T12:48:07.519Z,29.90
2018-08-23T12:50:35.773Z,29.30
2018-08-23T12:53:04.023Z,28.90
2018-08-23T12:55:32.270Z,28.10
2018-08-23T12:58:00.523Z,28.80
2018-08-23T13:00:28.891Z,29.60
2018-08-23T13:02:57.223Z,29.30
2018-08-23T13:05:26.173Z,28.50
2018-08-23T13:07:56.203Z,27.40
2018-08-23T13:10:24.453Z,27.40
2018-08-23T13:12:52.703Z,29.10
2018-08-23T13:15:23.167Z,27.90
2018-08-23T13:17:51.473Z,27.80
2018-08-23T13:20:19.701Z,27.90
2018-08-23T13:22:47.961Z,27.80
2018-08-23T13:25:16.982Z,27.80
2018-08-23T13:27:45.300Z,27.80
2018-08-23T13:30:13.703Z,28.30
2018-08-23T13:32:42.748Z,28.20
2018-08-23T13:35:10.991Z,27.60
2018-08-23T13:37:39.274Z,28.50
2018-08-23T13:40:08.266Z,28.20
2018-08-23T13:42:37.790Z,28.20
2018-08-23T13:45:05.979Z,28.50
2018-08-23T13:47:34.234Z,28.90
2018-08-23T13:50:02.500Z,27.00
2018-08-23T13:52:30.742Z,28.50
2018-08-23T13:54:59.778Z,28.40
2018-08-23T13:57:28.019Z,28.40
2018-08-23T13:59:57.070Z,27.70
2018-08-23T14:02:25.297Z,27.80
2018-08-23T14:04:53.549Z,28.90
2018-08-23T14:07:22.606Z,28.40
2018-08-23T14:09:50.835Z,28.60
2018-08-23T14:12:19.094Z,27.90
2018-08-23T14:14:48.132Z,28.20
2018-08-23T14:17:16.380Z,28.10
2018-08-23T14:19:44.670Z,28.30
2018-08-23T14:22:12.930Z,29.10
2018-08-23T14:24:41.195Z,27.90
2018-08-23T14:27:10.258Z,27.20
2018-08-23T14:29:39.270Z,27.90
2018-08-23T14:32:07.521Z,27.90
2018-08-23T14:34:35.783Z,26.70
2018-08-23T14:37:04.031Z,26.70
2018-08-23T14:39:32.285Z,26.50
2018-08-23T14:42:00.539Z,26.90
2018-08-23T14:44:28.813Z,27.90
2018-08-23T14:46:57.038Z,27.10
2018-08-23T14:49:25.354Z,27.60
2018-08-23T14:51:53.557Z,28.20
2018-08-23T14:54:22.620Z,27.70
2018-08-23T14:57:07.731Z,27.60
2018-08-23T14:59:36.011Z,28.20
2018-08-23T15:02:04.266Z,26.70
2018-08-23T15:04:33.283Z,29.10
2018-08-23T15:07:02.256Z,29.10
2018-08-23T15:09:30.515Z,29.00
2018-08-23T15:11:58.916Z,28.00
2018-08-23T15:14:27.227Z,29.40
2018-08-23T15:16:56.285Z,27.40
2018-08-23T15:19:24.694Z,27.40
2018-08-23T15:21:52.964Z,27.40
2018-08-23T15:24:21.979Z,30.70
2018-08-23T15:26:50.439Z,30.70
2018-08-23T15:29:18.510Z,29.90
2018-08-23T15:31:46.772Z,27.80
2018-08-23T15:34:15.030Z,27.70
2018-08-23T15:36:43.297Z,27.40
2018-08-23T15:39:12.339Z,27.20
2018-08-23T15:41:40.589Z,27.20
2018-08-23T15:44:08.857Z,27.90
2018-08-23T15:46:37.122Z,28.90
2018-08-23T15:49:05.386Z,28.00
2018-08-23T15:51:34.427Z,28.10
2018-08-23T15:54:02.693Z,28.80
2018-08-23T15:56:30.958Z,28.60
2018-08-23T15:58:59.243Z,29.40
2018-08-23T16:01:27.515Z,28.90
2018-08-23T16:03:55.769Z,29.70
2018-08-23T16:06:24.036Z,30.10
2018-08-23T16:08:52.298Z,30.10
2018-08-23T16:11:21.310Z,29.80
2018-08-23T16:13:49.843Z,29.80
2018-08-23T16:16:18.137Z,29.70
2018-08-23T16:19:02.663Z,30.00
2018-08-23T16:21:30.939Z,29.70
2018-08-23T16:23:59.183Z,30.60
2018-08-23T16:26:27.440Z,30.60
2018-08-23T16:28:55.839Z,30.40
2018-08-23T16:31:24.096Z,30.90
2018-08-23T16:33:52.334Z,30.70
2018-08-23T16:36:20.611Z,30.70
2018-08-23T16:38:48.875Z,30.20
2018-08-23T16:41:17.436Z,30.00
2018-08-23T16:43:45.683Z,30.60
2018-08-23T16:46:13.974Z,31.10
2018-08-23T16:48:43.000Z,30.80
2018-08-23T16:51:11.290Z,30.80
2018-08-23T16:53:39.550Z,31.90
2018-08-23T16:56:07.843Z,31.90
2018-08-23T16:58:36.108Z,31.70
2018-08-23T17:01:04.370Z,30.60
2018-08-23T17:03:32.645Z,30.90
2018-08-23T17:06:01.190Z,30.50
2018-08-23T17:08:29.451Z,30.60
2018-08-23T17:10:57.741Z,31.00
2018-08-23T17:13:26.027Z,31.50
2018-08-23T17:15:54.300Z,31.50
2018-08-23T17:20:57.208Z,32.20
2018-08-23T17:23:25.464Z,32.30
2018-08-23T17:25:53.726Z,33.00
2018-08-23T17:28:22.058Z,33.20
2018-08-23T17:30:51.199Z,33.10
2018-08-23T17:33:20.232Z,33.20
2018-08-23T17:35:48.514Z,33.20
2018-08-23T17:38:16.833Z,33.20
2018-08-23T17:40:45.047Z,33.10
2018-08-23T17:46:20.852Z,33.70
2018-08-23T17:48:49.836Z,34.90
2018-08-23T17:51:18.134Z,34.90
2018-08-23T17:53:46.411Z,38.50
2018-08-23T17:56:14.685Z,43.90
2018-08-23T17:58:42.952Z,47.90
2018-08-23T18:01:11.242Z,52.30
2018-08-23T18:03:39.513Z,56.00
2018-08-23T18:06:07.789Z,57.40
2018-08-23T18:08:36.039Z,57.30
2018-08-23T18:17:03.464Z,56.70
2018-08-23T18:19:31.775Z,56.60
2018-08-23T18:22:00.812Z,57.10
2018-08-23T18:24:29.062Z,57.00
2018-08-23T18:26:57.348Z,58.50
2018-08-23T18:29:25.597Z,56.90
2018-08-23T18:31:53.860Z,57.10
2018-08-23T18:34:22.893Z,55.30
2018-08-23T18:36:51.154Z,55.40
2018-08-23T18:39:19.427Z,56.50
2018-08-23T18:41:47.666Z,55.70
2018-08-23T18:44:16.706Z,56.90
2018-08-23T18:46:45.093Z,56.80
2018-08-23T18:49:13.342Z,55.30
2018-08-23T18:51:41.590Z,57.20
2018-08-23T18:54:10.625Z,57.80
2018-08-23T18:56:38.872Z,57.80
2018-08-23T18:59:07.141Z,57.00
2018-08-23T19:01:35.390Z,57.10
2018-08-23T19:04:03.653Z,54.70
2018-08-23T19:06:31.918Z,55.80
2018-08-23T19:09:00.188Z,57.50
2018-08-23T19:11:28.482Z,56.40
2018-08-23T19:13:56.775Z,57.30
2018-08-23T19:16:26.002Z,55.50
2018-08-23T19:18:54.311Z,55.70
2018-08-23T19:21:22.567Z,55.30
2018-08-23T19:23:51.571Z,54.80
2018-08-23T19:26:19.840Z,54.70
2018-08-23T19:28:48.116Z,54.50
2018-08-23T19:31:16.446Z,55.50
2018-08-23T19:33:44.647Z,55.50
2018-08-23T19:36:12.941Z,55.10
2018-08-23T19:38:41.178Z,55.80
2018-08-23T19:41:10.202Z,56.50
2018-08-23T19:43:38.465Z,56.40
2018-08-23T19:46:06.727Z,56.00
2018-08-23T19:48:35.762Z,56.30
2018-08-23T19:51:04.286Z,56.40
2018-08-23T19:53:32.545Z,56.70
2018-08-23T19:56:00.796Z,56.90
2018-08-23T19:58:29.524Z,56.20
2018-08-23T20:00:57.836Z,56.20
2018-08-23T20:03:26.100Z,56.00
2018-08-23T20:05:54.375Z,55.70
2018-08-23T20:08:22.621Z,55.90
2018-08-23T20:10:50.895Z,56.20
2018-08-23T20:13:19.155Z,56.30
2018-08-23T20:15:47.411Z,56.60
2018-08-23T20:18:15.674Z,57.50
2018-08-23T20:20:43.945Z,57.50
2018-08-23T20:23:12.214Z,57.80
2018-08-23T20:25:40.483Z,58.30
2018-08-23T20:28:08.752Z,58.00
2018-08-23T20:30:42.952Z,58.20
2018-08-23T20:33:17.801Z,58.00
2018-08-23T20:35:52.084Z,58.10
2018-08-23T20:38:26.359Z,59.60
2018-08-23T20:41:00.586Z,60.00
2018-08-23T20:43:34.874Z,59.60
2018-08-23T20:46:09.098Z,59.80
2018-08-23T20:48:43.320Z,59.20
2018-08-23T20:51:17.639Z,59.10
2018-08-23T20:53:51.819Z,59.30
2018-08-23T20:56:26.174Z,59.50
2018-08-23T20:59:00.423Z,59.40
2018-08-23T21:01:35.459Z,59.90
2018-08-23T21:04:09.844Z,59.80
2018-08-23T21:06:44.209Z,59.70
2018-08-23T21:09:18.395Z,59.70
2018-08-23T21:11:52.730Z,60.10
2018-08-23T21:14:27.806Z,60.10
2018-08-23T21:17:01.988Z,60.00
2018-08-23T21:19:30.999Z,60.10
2018-08-23T21:21:59.271Z,60.00
2018-08-23T21:24:27.535Z,60.00
2018-08-23T21:26:56.558Z,60.20
2018-08-23T21:29:24.802Z,60.20
2018-08-23T21:31:53.070Z,59.90
2018-08-23T21:34:22.081Z,60.00
2018-08-23T21:36:50.347Z,59.90
2018-08-23T21:39:19.599Z,60.00
2018-08-23T21:41:48.616Z,59.90
2018-08-23T21:44:16.862Z,59.90
2018-08-23T21:46:45.142Z,60.50
2018-08-23T21:49:13.378Z,59.90
2018-08-23T21:51:41.654Z,59.90
2018-08-23T21:54:10.690Z,59.90
2018-08-23T21:56:38.984Z,60.40
2018-08-23T21:59:07.254Z,59.90
2018-08-23T22:01:35.506Z,59.80
2018-08-23T22:04:04.536Z,59.80
2018-08-23T22:06:33.571Z,59.70
2018-08-23T22:09:01.808Z,59.70
2018-08-23T22:11:30.071Z,59.60
2018-08-23T22:13:59.093Z,59.50
2018-08-23T22:16:27.359Z,59.60
2018-08-23T22:18:55.608Z,60.00
2018-08-23T22:21:23.875Z,59.70
2018-08-23T22:23:52.135Z,59.70
2018-08-23T22:26:20.388Z,60.00
2018-08-23T22:28:48.642Z,59.70
2018-08-23T22:31:16.887Z,59.70
2018-08-23T22:33:45.918Z,59.50
2018-08-23T22:36:14.175Z,59.50
2018-08-23T22:38:42.425Z,59.40
2018-08-23T22:41:10.690Z,59.30
2018-08-23T22:43:38.958Z,59.30
2018-08-23T22:46:07.205Z,59.40
2018-08-23T22:48:35.474Z,59.40
2018-08-23T22:51:03.722Z,59.40
2018-08-23T22:53:32.723Z,59.50
2018-08-23T22:56:01.038Z,59.50
2018-08-23T22:58:29.259Z,59.60
2018-08-23T23:00:57.502Z,59.70
2018-08-23T23:03:25.777Z,59.60
2018-08-23T23:05:54.013Z,59.50
2018-08-23T23:08:22.315Z,59.60
2018-08-23T23:10:50.576Z,59.70
2018-08-23T23:13:18.842Z,59.60
2018-08-23T23:15:47.100Z,59.50
2018-08-23T23:18:15.358Z,58.90
2018-08-23T23:20:44.399Z,58.60
2018-08-23T23:23:12.652Z,58.60
2018-08-23T23:25:40.925Z,58.90
2018-08-23T23:28:09.179Z,58.70
2018-08-23T23:30:37.423Z,58.50
2018-08-23T23:33:05.688Z,59.60
2018-08-23T23:35:33.952Z,59.00
2018-08-23T23:38:02.191Z,58.70
2018-08-23T23:40:30.459Z,58.40
2018-08-23T23:42:58.708Z,58.90
2018-08-23T23:45:26.971Z,58.90
2018-08-23T23:47:55.255Z,59.40
2018-08-23T23:50:23.482Z,59.50
2018-08-23T23:52:51.742Z,59.30
2018-08-23T23:55:19.983Z,59.20
2018-08-23T23:57:49.012Z,59.20
